Hartland, Canada
Current Conditions -  °F | °C
As of 8:28 AM on Thursday 23 Oct 2014 (Local Time) from KHUL Reporting Station
Overcast Overcast  
Wind Chill: 37°   Ceiling: 900
Heat Index: 44°   Visibility: 10mi
Dew Point: 42°   Wind: 14mph
Humidity: 93%   Direction: 20°NNE
Pressure: 30.11"   Gusts: NA
Location:  46.3°N, 67.52°W
Report Text: KHUL 231128Z AUTO 02012KT 10SM OVC009 07/06 A3011 RMK AO2 CIG 006V013 T00670056 PNO $
Loading
Personal Weather Stations






























Interactive Weather Map
Tropical Storm Tracking
New forecast layout! Learn more

10-Day Weather Forecast

Advertisements
Track Severe Weather on mobile